createdAt,value
2019-05-09T00:01:39.384Z,12.60
2019-05-09T00:04:09.799Z,8.73
2019-05-09T00:06:40.011Z,8.88
2019-05-09T00:09:10.237Z,12.80
2019-05-09T00:11:40.794Z,10.58
2019-05-09T00:14:13.422Z,11.78
2019-05-09T00:16:44.055Z,9.70
2019-05-09T00:19:14.691Z,8.38
2019-05-09T00:21:54.078Z,8.30
2019-05-09T00:24:24.831Z,7.33
2019-05-09T00:26:55.213Z,10.72
2019-05-09T00:29:33.440Z,9.25
2019-05-09T00:32:08.885Z,14.78
2019-05-09T00:34:39.322Z,8.78
2019-05-09T00:37:09.652Z,10.23
2019-05-09T00:39:39.863Z,11.33
2019-05-09T00:42:10.107Z,10.05
2019-05-09T00:44:53.279Z,11.00
2019-05-09T00:47:28.637Z,11.45
2019-05-09T00:49:59.105Z,13.18
2019-05-09T00:52:29.310Z,10.30
2019-05-09T00:54:59.904Z,9.00
2019-05-09T00:57:36.247Z,10.03
2019-05-09T01:00:14.696Z,9.35
2019-05-09T01:02:45.262Z,11.73
2019-05-09T01:05:16.174Z,12.07
2019-05-09T01:07:46.475Z,9.55
2019-05-09T01:10:17.056Z,12.85
2019-05-09T01:12:47.655Z,15.15
2019-05-09T01:15:18.596Z,10.48
2019-05-09T01:17:48.849Z,12.75
2019-05-09T01:20:20.118Z,8.63
2019-05-09T01:22:50.752Z,10.20
2019-05-09T01:25:21.337Z,6.62
2019-05-09T01:27:53.696Z,8.95
2019-05-09T01:30:24.348Z,10.88
2019-05-09T01:33:13.623Z,12.90
2019-05-09T01:35:44.731Z,8.63
2019-05-09T01:38:15.098Z,10.00
2019-05-09T01:40:45.338Z,9.33
2019-05-09T01:43:17.099Z,10.40
2019-05-09T01:45:47.729Z,14.83
2019-05-09T01:48:18.382Z,11.75
2019-05-09T01:50:49.042Z,13.48
2019-05-09T01:53:20.996Z,9.15
2019-05-09T01:56:03.661Z,9.65
2019-05-09T01:58:34.587Z,8.78
2019-05-09T02:01:07.167Z,10.58
2019-05-09T02:03:37.465Z,7.97
2019-05-09T02:06:07.773Z,13.80
2019-05-09T02:08:38.029Z,10.72
2019-05-09T02:11:08.271Z,9.20
2019-05-09T02:13:41.373Z,10.43
2019-05-09T02:16:13.987Z,8.45
2019-05-09T02:18:45.763Z,10.25
2019-05-09T02:21:16.122Z,11.65
2019-05-09T02:23:46.357Z,7.25
2019-05-09T02:26:16.642Z,9.73
2019-05-09T02:28:47.215Z,9.43
2019-05-09T02:31:17.842Z,9.98
2019-05-09T02:33:48.461Z,9.58
2019-05-09T02:36:19.228Z,8.13
2019-05-09T02:38:49.581Z,9.48
2019-05-09T02:41:20.041Z,8.50
2019-05-09T02:43:51.915Z,8.28
2019-05-09T02:46:42.009Z,9.85
2019-05-09T02:49:12.716Z,8.83
2019-05-09T02:51:43.689Z,6.65
2019-05-09T02:54:14.319Z,7.95
2019-05-09T02:56:44.628Z,9.18
2019-05-09T02:59:19.543Z,9.45
2019-05-09T03:01:51.477Z,9.80
2019-05-09T03:04:21.709Z,11.83
2019-05-09T03:06:51.924Z,8.25
2019-05-09T03:09:22.221Z,7.30
2019-05-09T03:11:52.439Z,8.58
2019-05-09T03:14:22.652Z,8.78
2019-05-09T03:16:52.864Z,9.13
2019-05-09T03:19:23.114Z,10.68
2019-05-09T03:21:58.212Z,16.60
2019-05-09T03:24:29.126Z,9.30
2019-05-09T03:27:01.073Z,11.05
2019-05-09T03:29:35.864Z,8.35
2019-05-09T03:32:09.200Z,10.88
2019-05-09T03:34:38.805Z,11.65
2019-05-09T03:37:09.033Z,7.83
2019-05-09T03:39:39.259Z,13.72
2019-05-09T03:42:09.487Z,11.03
2019-05-09T03:44:39.703Z,11.45
2019-05-09T03:47:11.551Z,8.60
2019-05-09T03:49:41.848Z,8.78
2019-05-09T03:52:12.077Z,9.78
2019-05-09T03:54:42.300Z,8.85
2019-05-09T03:57:15.428Z,7.15
2019-05-09T03:59:48.001Z,10.30
2019-05-09T04:02:17.954Z,12.47
2019-05-09T04:04:48.683Z,9.83
2019-05-09T04:07:19.330Z,9.20
2019-05-09T04:09:49.950Z,11.33
2019-05-09T04:12:20.306Z,12.70
2019-05-09T04:14:53.992Z,7.62
2019-05-09T04:17:27.955Z,14.25
2019-05-09T04:19:57.909Z,9.28
2019-05-09T04:22:28.165Z,12.07
2019-05-09T04:24:58.754Z,10.23
2019-05-09T04:27:31.042Z,9.50
2019-05-09T04:30:01.932Z,8.58
2019-05-09T04:32:32.641Z,14.63
2019-05-09T04:35:08.030Z,8.20
2019-05-09T04:37:38.099Z,8.83
2019-05-09T04:40:08.723Z,12.45
2019-05-09T04:42:43.037Z,7.40
2019-05-09T04:45:13.369Z,7.80
2019-05-09T04:47:43.710Z,12.65
2019-05-09T04:50:15.333Z,12.47
2019-05-09T04:52:47.523Z,9.90
2019-05-09T04:55:20.174Z,9.98
2019-05-09T04:57:51.003Z,10.82
2019-05-09T05:00:32.352Z,15.65
2019-05-09T05:03:02.600Z,9.58
2019-05-09T05:05:34.540Z,9.85
2019-05-09T05:08:04.771Z,11.10
2019-05-09T05:10:37.253Z,9.53
2019-05-09T05:13:23.276Z,8.48
2019-05-09T05:15:43.387Z,13.38
2019-05-09T05:18:20.229Z,16.42
2019-05-09T05:20:52.617Z,7.20
2019-05-09T05:23:34.888Z,11.40
2019-05-09T05:26:05.543Z,8.88
2019-05-09T05:28:38.040Z,10.75
2019-05-09T05:31:07.868Z,9.55
2019-05-09T05:33:51.108Z,11.05
2019-05-09T05:36:20.881Z,9.83
2019-05-09T05:38:51.830Z,10.32
2019-05-09T05:41:22.194Z,13.58
2019-05-09T05:43:52.423Z,9.75
2019-05-09T05:46:24.329Z,10.13
2019-05-09T05:48:57.758Z,10.00
2019-05-09T05:51:30.517Z,13.40
2019-05-09T05:54:02.689Z,11.38
2019-05-09T05:56:32.954Z,9.95
2019-05-09T05:59:03.574Z,12.43
2019-05-09T06:01:34.297Z,14.13
2019-05-09T06:04:04.809Z,10.60
2019-05-09T06:06:37.461Z,9.13
2019-05-09T06:09:10.172Z,12.98
2019-05-09T06:11:51.141Z,11.63
2019-05-09T06:14:21.411Z,10.88
2019-05-09T06:16:53.171Z,9.70
2019-05-09T06:19:24.746Z,13.55
2019-05-09T06:21:57.225Z,11.40
2019-05-09T06:24:28.207Z,10.78
2019-05-09T06:26:58.939Z,12.40
2019-05-09T06:29:29.540Z,18.70
2019-05-09T06:32:00.849Z,9.30
2019-05-09T06:34:32.561Z,11.88
2019-05-09T06:37:03.560Z,13.20
2019-05-09T06:39:33.907Z,12.35
2019-05-09T06:42:04.850Z,15.03
2019-05-09T06:44:42.639Z,12.75
2019-05-09T06:47:20.729Z,17.02
2019-05-09T06:49:58.530Z,14.50
2019-05-09T06:52:28.849Z,11.60
2019-05-09T06:54:59.188Z,14.00
2019-05-09T06:57:29.580Z,15.95
2019-05-09T06:59:59.791Z,13.60
2019-05-09T07:02:34.428Z,17.70
2019-05-09T07:05:09.877Z,18.90
2019-05-09T07:07:41.839Z,10.63
2019-05-09T07:10:12.237Z,11.00
2019-05-09T07:12:42.485Z,8.98
2019-05-09T07:15:13.250Z,16.37
2019-05-09T07:17:43.530Z,13.83
2019-05-09T07:20:13.844Z,10.38
2019-05-09T07:22:48.266Z,9.13
2019-05-09T07:25:22.928Z,9.70
2019-05-09T07:27:53.229Z,17.62
2019-05-09T07:30:43.647Z,15.10
2019-05-09T07:33:15.501Z,14.65
2019-05-09T07:35:47.614Z,15.38
2019-05-09T07:38:19.925Z,14.00
2019-05-09T07:43:21.781Z,9.93
2019-05-09T07:46:04.559Z,15.00
2019-05-09T07:48:38.091Z,11.08
2019-05-09T07:51:08.339Z,21.07
2019-05-09T07:53:38.757Z,18.02
2019-05-09T07:56:09.115Z,21.60
2019-05-09T07:58:39.291Z,17.95
2019-05-09T08:01:09.585Z,11.35
2019-05-09T08:03:39.774Z,15.45
2019-05-09T08:06:10.455Z,12.50
2019-05-09T08:08:41.817Z,12.75
2019-05-09T08:11:12.575Z,15.15
2019-05-09T08:13:43.313Z,11.73
2019-05-09T08:16:20.426Z,17.00
2019-05-09T08:18:50.700Z,14.10
2019-05-09T08:21:38.363Z,14.25
2019-05-09T08:24:09.689Z,24.65
2019-05-09T08:26:39.958Z,22.10
2019-05-09T08:29:10.562Z,21.75
2019-05-09T08:31:41.223Z,16.90
2019-05-09T08:34:11.949Z,19.62
2019-05-09T08:36:42.747Z,24.98
2019-05-09T08:39:13.152Z,17.05
2019-05-09T08:41:43.520Z,34.63
2019-05-09T08:44:15.161Z,22.77
2019-05-09T08:46:48.146Z,18.00
2019-05-09T08:49:20.957Z,15.38
2019-05-09T08:52:10.361Z,21.93
2019-05-09T08:54:44.431Z,17.70
2019-05-09T08:57:14.944Z,25.30
2019-05-09T08:59:48.162Z,10.90
2019-05-09T09:02:21.962Z,23.65
2019-05-09T09:04:49.517Z,16.77
2019-05-09T09:07:19.853Z,18.32
2019-05-09T09:09:50.065Z,21.05
2019-05-09T09:12:30.260Z,16.62
2019-05-09T09:14:52.931Z,12.15
2019-05-09T09:17:23.713Z,17.35
2019-05-09T09:19:54.000Z,14.20
2019-05-09T09:22:24.253Z,14.15
2019-05-09T09:24:54.478Z,26.30
2019-05-09T09:27:24.722Z,17.62
2019-05-09T09:29:55.053Z,21.40
2019-05-09T09:32:28.053Z,17.40
2019-05-09T09:34:58.768Z,18.42
2019-05-09T09:37:44.697Z,16.32
2019-05-09T09:40:01.216Z,14.95
2019-05-09T09:42:31.818Z,21.77
2019-05-09T09:45:02.142Z,19.15
2019-05-09T09:47:32.771Z,15.75
2019-05-09T09:50:04.270Z,14.58
2019-05-09T09:52:35.276Z,20.55
2019-05-09T09:55:08.993Z,10.35
2019-05-09T09:57:39.832Z,11.88
2019-05-09T10:00:31.203Z,12.93
2019-05-09T10:03:02.756Z,11.25
2019-05-09T10:05:38.081Z,13.75
2019-05-09T10:08:13.853Z,18.23
2019-05-09T10:10:41.356Z,11.65
2019-05-09T10:13:14.943Z,12.28
2019-05-09T10:15:53.543Z,7.47
2019-05-09T10:18:43.776Z,13.25
2019-05-09T10:21:15.718Z,9.30
2019-05-09T10:23:48.376Z,9.85
2019-05-09T10:26:18.375Z,12.45
2019-05-09T10:28:50.219Z,10.10
2019-05-09T10:31:20.931Z,9.05
2019-05-09T10:33:51.265Z,10.78
2019-05-09T10:36:21.504Z,8.55
2019-05-09T10:38:52.863Z,8.85
2019-05-09T10:41:23.887Z,10.55
2019-05-09T10:43:57.854Z,8.78
2019-05-09T10:46:48.101Z,9.75
2019-05-09T10:49:04.455Z,5.95
2019-05-09T10:51:34.713Z,15.25
2019-05-09T10:54:07.851Z,8.45
2019-05-09T10:56:38.469Z,9.55
2019-05-09T10:59:09.400Z,8.90
2019-05-09T11:01:39.694Z,11.22
2019-05-09T11:04:09.924Z,13.32
2019-05-09T11:06:40.160Z,10.25
2019-05-09T11:09:11.200Z,8.48
2019-05-09T11:11:41.646Z,7.05
2019-05-09T11:14:27.958Z,8.58
2019-05-09T11:16:59.155Z,7.72
2019-05-09T11:19:21.654Z,8.45
2019-05-09T11:21:53.644Z,14.63
2019-05-09T11:24:45.856Z,17.48
2019-05-09T11:27:10.317Z,7.03
2019-05-09T11:29:40.699Z,15.48
2019-05-09T11:32:11.371Z,7.78
2019-05-09T11:34:42.001Z,20.08
2019-05-09T11:37:12.692Z,9.08
2019-05-09T11:39:43.414Z,5.83
2019-05-09T11:42:14.079Z,12.95
2019-05-09T11:44:46.396Z,8.43
2019-05-09T11:47:31.911Z,10.65
2019-05-09T11:49:49.483Z,10.35
2019-05-09T11:52:19.857Z,12.37
2019-05-09T11:54:50.521Z,10.00
2019-05-09T11:57:20.883Z,9.00
2019-05-09T11:59:51.463Z,15.45
2019-05-09T12:02:22.194Z,15.55
2019-05-09T12:04:53.525Z,6.08
2019-05-09T12:07:23.758Z,8.83
2019-05-09T12:09:54.319Z,9.43
2019-05-09T12:12:28.316Z,8.15
2019-05-09T12:14:58.250Z,12.18
2019-05-09T12:17:40.766Z,10.18
2019-05-09T12:20:09.852Z,6.22
2019-05-09T12:22:33.735Z,10.43
2019-05-09T12:25:08.572Z,6.45
2019-05-09T12:27:39.457Z,10.18
2019-05-09T12:30:10.330Z,10.50
2019-05-09T12:32:40.581Z,9.28
2019-05-09T12:35:10.879Z,8.33
2019-05-09T12:37:43.170Z,10.45
2019-05-09T12:40:14.290Z,10.80
2019-05-09T12:42:45.183Z,9.63
2019-05-09T12:45:18.004Z,5.05
2019-05-09T12:47:48.698Z,6.30
2019-05-09T12:50:19.804Z,4.70
2019-05-09T12:52:51.206Z,7.87
2019-05-09T12:55:21.933Z,11.10
2019-05-09T12:57:52.333Z,8.05
2019-05-09T13:00:23.196Z,6.70
2019-05-09T13:02:55.469Z,6.33
2019-05-09T13:05:27.397Z,8.30
2019-05-09T13:07:58.339Z,7.15
2019-05-09T13:10:28.999Z,10.55
2019-05-09T13:12:59.647Z,7.60
2019-05-09T13:15:32.051Z,7.20
2019-05-09T13:18:02.339Z,6.12
2019-05-09T13:20:32.736Z,6.92
2019-05-09T13:23:03.331Z,7.67
2019-05-09T13:25:33.983Z,11.88
2019-05-09T13:28:04.525Z,8.15
2019-05-09T13:30:34.810Z,8.15
2019-05-09T13:33:09.884Z,6.62
2019-05-09T13:35:40.690Z,8.50
2019-05-09T13:38:11.526Z,7.55
2019-05-09T13:40:41.777Z,5.78
2019-05-09T13:43:13.716Z,8.00
2019-05-09T13:45:43.983Z,11.95
2019-05-09T13:48:32.135Z,11.03
2019-05-09T13:50:48.013Z,16.55
2019-05-09T13:53:19.918Z,10.38
2019-05-09T13:55:50.837Z,7.78
2019-05-09T13:58:21.609Z,9.30
2019-05-09T14:00:58.917Z,11.40
2019-05-09T14:03:24.663Z,5.53
2019-05-09T14:05:54.941Z,4.08
2019-05-09T14:08:25.259Z,7.72
2019-05-09T14:10:58.283Z,9.50
2019-05-09T14:13:30.296Z,10.68
2019-05-09T14:16:15.634Z,9.60
2019-05-09T14:18:33.935Z,10.05
2019-05-09T14:21:04.291Z,10.10
2019-05-09T14:23:36.887Z,13.75
2019-05-09T14:26:09.352Z,9.65
2019-05-09T14:28:39.150Z,12.28
2019-05-09T14:31:10.120Z,14.53
2019-05-09T14:33:40.461Z,13.68
2019-05-09T14:36:11.101Z,14.13
2019-05-09T14:38:41.463Z,8.00
2019-05-09T14:41:11.688Z,13.72
2019-05-09T14:43:42.315Z,8.53
2019-05-09T14:46:12.776Z,9.68
2019-05-09T14:48:43.345Z,11.38
2019-05-09T14:51:15.263Z,17.50
2019-05-09T14:53:45.835Z,8.93
2019-05-09T14:56:16.474Z,9.98
2019-05-09T14:58:48.541Z,9.88
2019-05-09T15:01:19.309Z,7.05
2019-05-09T15:04:03.465Z,6.65
2019-05-09T15:06:33.785Z,14.90
2019-05-09T15:09:08.261Z,12.30
2019-05-09T15:11:39.844Z,14.03
2019-05-09T15:14:13.322Z,7.28
2019-05-09T15:16:43.883Z,7.58
2019-05-09T15:19:14.550Z,11.08
2019-05-09T15:21:45.224Z,13.13
2019-05-09T15:24:15.893Z,7.85
2019-05-09T15:26:47.909Z,7.12
2019-05-09T15:29:18.695Z,12.90
2019-05-09T15:31:54.456Z,16.52
2019-05-09T15:34:23.289Z,60.80
2019-05-09T15:36:54.867Z,7.85
2019-05-09T15:39:27.786Z,8.00
2019-05-09T15:41:58.144Z,24.18
2019-05-09T15:44:28.969Z,21.40
2019-05-09T15:47:00.898Z,7.35
2019-05-09T15:49:41.966Z,15.72
2019-05-09T15:52:13.834Z,14.30
2019-05-09T15:54:44.496Z,7.50
2019-05-09T15:57:17.613Z,11.70
2019-05-09T15:59:48.105Z,12.10
2019-05-09T16:02:20.521Z,9.05
2019-05-09T16:04:50.828Z,9.68
2019-05-09T16:07:21.684Z,4.08
2019-05-09T16:09:52.046Z,11.55
2019-05-09T16:12:22.295Z,10.55
2019-05-09T16:14:54.071Z,15.28
2019-05-09T16:17:28.554Z,13.15
2019-05-09T16:20:04.912Z,9.08
2019-05-09T16:22:39.266Z,7.05
2019-05-09T16:25:10.266Z,14.87
2019-05-09T16:27:42.132Z,15.10
2019-05-09T16:30:12.550Z,4.62
2019-05-09T16:32:42.786Z,5.17
2019-05-09T16:35:13.117Z,9.80
2019-05-09T16:38:01.750Z,8.73
2019-05-09T16:40:16.122Z,8.08
2019-05-09T16:42:47.488Z,9.53
2019-05-09T16:45:18.488Z,10.48
2019-05-09T16:47:49.178Z,12.70
2019-05-09T16:50:20.002Z,8.98
2019-05-09T16:52:50.719Z,12.82
2019-05-09T16:55:23.023Z,12.23
2019-05-09T16:57:58.771Z,8.20
2019-05-09T17:00:32.253Z,13.80
2019-05-09T17:03:04.603Z,8.70
2019-05-09T17:05:37.451Z,5.78
2019-05-09T17:08:08.365Z,6.65
2019-05-09T17:10:38.757Z,10.70
2019-05-09T17:13:09.326Z,8.43
2019-05-09T17:15:40.173Z,7.65
2019-05-09T17:18:10.925Z,6.37
2019-05-09T17:20:48.414Z,6.95
2019-05-09T17:23:21.783Z,7.47
2019-05-09T17:25:52.077Z,9.20
2019-05-09T17:28:22.766Z,9.23
2019-05-09T17:30:53.544Z,8.98
2019-05-09T17:33:24.280Z,14.90
2019-05-09T17:35:54.915Z,6.90
2019-05-09T17:38:27.897Z,6.62
2019-05-09T17:40:57.967Z,8.25
2019-05-09T17:43:29.011Z,5.70
2019-05-09T17:45:59.828Z,8.73
2019-05-09T17:48:30.146Z,8.98
2019-05-09T17:51:00.776Z,6.37
2019-05-09T17:53:33.661Z,7.08
2019-05-09T17:56:03.453Z,8.00
2019-05-09T17:58:33.684Z,7.75
2019-05-09T18:01:04.301Z,7.70
2019-05-09T18:03:34.651Z,11.30
2019-05-09T18:06:08.111Z,8.38
2019-05-09T18:08:37.864Z,8.50
2019-05-09T18:11:10.056Z,9.43
2019-05-09T18:13:41.175Z,7.35
2019-05-09T18:16:12.014Z,11.93
2019-05-09T18:18:42.407Z,10.20
2019-05-09T18:21:17.651Z,8.40
2019-05-09T18:23:47.998Z,11.35
2019-05-09T18:26:18.738Z,13.88
2019-05-09T18:28:50.118Z,12.28
2019-05-09T18:31:22.614Z,16.80
2019-05-09T18:33:54.977Z,14.10
2019-05-09T18:36:25.327Z,10.58
2019-05-09T18:38:55.563Z,12.53
2019-05-09T18:41:28.511Z,10.43
2019-05-09T18:43:58.123Z,9.95
2019-05-09T18:46:28.776Z,11.35
2019-05-09T18:48:59.428Z,15.85
2019-05-09T18:51:29.743Z,15.25
2019-05-09T18:54:00.348Z,25.88
2019-05-09T18:56:30.641Z,37.05
2019-05-09T18:59:01.211Z,26.60
2019-05-09T19:01:31.974Z,22.58
2019-05-09T19:04:07.979Z,23.83
2019-05-09T19:06:39.915Z,25.77
2019-05-09T19:09:11.888Z,31.25
2019-05-09T19:11:43.158Z,26.10
2019-05-09T19:14:15.376Z,36.90
2019-05-09T19:16:50.564Z,56.08
2019-05-09T19:19:25.456Z,31.77
2019-05-09T19:22:04.623Z,56.70
2019-05-09T19:24:32.356Z,88.95
2019-05-09T19:27:02.613Z,42.88
2019-05-09T19:29:33.219Z,129.55
2019-05-09T19:32:03.657Z,27.98
2019-05-09T19:34:35.704Z,30.43
2019-05-09T19:37:06.406Z,32.85
2019-05-09T19:39:36.908Z,30.08
2019-05-09T19:42:07.211Z,29.75
2019-05-09T19:44:37.598Z,28.32
2019-05-09T19:47:07.839Z,40.12
2019-05-09T19:49:38.441Z,30.97
2019-05-09T19:52:09.017Z,29.92
2019-05-09T19:54:40.742Z,37.17
2019-05-09T19:57:11.393Z,38.13
2019-05-09T19:59:41.703Z,51.77
2019-05-09T20:02:12.006Z,67.80
2019-05-09T20:04:42.252Z,92.55
2019-05-09T20:07:12.942Z,126.12
2019-05-09T20:09:44.911Z,80.87
2019-05-09T20:12:17.843Z,68.20
2019-05-09T20:14:49.940Z,55.10
2019-05-09T20:17:20.284Z,54.75
2019-05-09T20:19:50.531Z,49.13
2019-05-09T20:22:21.181Z,47.53
2019-05-09T20:24:53.765Z,55.92
2019-05-09T20:27:24.314Z,44.77
2019-05-09T20:29:55.064Z,37.05
2019-05-09T20:32:25.706Z,35.45
2019-05-09T20:34:56.421Z,39.23
2019-05-09T20:37:26.916Z,45.65
2019-05-09T20:39:57.733Z,39.48
2019-05-09T20:42:29.883Z,38.75
2019-05-09T20:45:00.741Z,34.35
2019-05-09T20:47:31.767Z,28.07
2019-05-09T20:50:06.115Z,33.08
2019-05-09T20:52:37.015Z,29.32
2019-05-09T20:55:07.855Z,29.20
2019-05-09T20:57:38.361Z,30.60
2019-05-09T21:00:09.599Z,28.80
2019-05-09T21:02:42.997Z,31.05
2019-05-09T21:05:13.558Z,32.10
2019-05-09T21:07:45.646Z,28.67
2019-05-09T21:10:16.810Z,27.37
2019-05-09T21:12:47.625Z,33.63
2019-05-09T21:15:18.539Z,30.50
2019-05-09T21:17:49.010Z,30.05
2019-05-09T21:20:19.458Z,29.60
2019-05-09T21:22:49.957Z,32.35
2019-05-09T21:25:20.382Z,31.73
2019-05-09T21:27:50.787Z,32.67
2019-05-09T21:30:21.652Z,33.30
2019-05-09T21:32:52.443Z,32.78
2019-05-09T21:35:22.715Z,31.60
2019-05-09T21:37:52.938Z,29.52
2019-05-09T21:40:23.519Z,30.05
2019-05-09T21:42:54.254Z,29.98
2019-05-09T21:45:25.003Z,29.55
2019-05-09T21:47:55.647Z,30.60
2019-05-09T21:50:25.962Z,27.02
2019-05-09T21:52:56.179Z,27.42
2019-05-09T21:55:26.943Z,29.48
2019-05-09T21:57:57.322Z,29.60
2019-05-09T22:00:36.108Z,30.97
2019-05-09T22:03:07.244Z,38.23
2019-05-09T22:05:38.203Z,30.32
2019-05-09T22:08:08.922Z,33.20
2019-05-09T22:10:39.623Z,34.78
2019-05-09T22:13:10.200Z,35.10
2019-05-09T22:15:40.423Z,32.65
2019-05-09T22:18:10.681Z,28.85
2019-05-09T22:20:41.245Z,31.73
2019-05-09T22:23:11.543Z,30.72
2019-05-09T22:25:42.031Z,28.25
2019-05-09T22:28:12.630Z,25.68
2019-05-09T22:30:43.275Z,22.25
2019-05-09T22:33:13.979Z,23.87
2019-05-09T22:35:44.712Z,23.70
2019-05-09T22:38:15.378Z,22.77
2019-05-09T22:40:45.854Z,24.87
2019-05-09T22:43:16.460Z,24.55
2019-05-09T22:45:47.105Z,22.90
2019-05-09T22:48:17.741Z,23.75
2019-05-09T22:50:48.065Z,20.08
2019-05-09T22:53:19.802Z,20.75
2019-05-09T22:55:50.466Z,21.42
2019-05-09T22:58:20.767Z,22.90
2019-05-09T23:00:51.171Z,22.58
2019-05-09T23:03:21.428Z,22.70
2019-05-09T23:05:51.823Z,20.02
2019-05-09T23:08:22.393Z,19.27
2019-05-09T23:10:53.645Z,24.52
2019-05-09T23:13:24.401Z,21.55
2019-05-09T23:15:54.724Z,20.32
2019-05-09T23:18:25.294Z,22.42
2019-05-09T23:20:56.846Z,20.15
2019-05-09T23:23:28.907Z,23.12
2019-05-09T23:25:59.623Z,23.30
2019-05-09T23:28:30.060Z,21.25
2019-05-09T23:31:04.967Z,20.82
2019-05-09T23:33:36.824Z,20.25
2019-05-09T23:36:08.768Z,22.75
2019-05-09T23:38:57.175Z,25.23
2019-05-09T23:41:27.894Z,22.32
2019-05-09T23:43:58.184Z,22.45
2019-05-09T23:46:28.868Z,24.30
2019-05-09T23:48:59.508Z,21.87
2019-05-09T23:51:45.500Z,20.90
2019-05-09T23:54:45.787Z,20.08
2019-05-09T23:57:28.453Z,22.00
